Time;durP1;ratioP1;P1;durP2;ratioP2;P2;SDS_P1;SDS_P2;PMS_P1;PMS_P2;Temp;Humidity;BMP_temperature;BMP_pressure;BME280_temperature;BME280_humidity;BME280_pressure;Samples;Min_cycle;Max_cycle;Signal;HPM_P1;HPM_P2
2022/02/14 00:02:11;;;;;;;4.35;2.63;;;;;;;;;;5019713;28;20198;-83
2022/02/14 00:04:37;;;;;;;3.30;2.20;;;;;;;;;;5033833;28;20191;-83
2022/02/14 00:07:04;;;;;;;4.30;2.28;;;;;;;;;;5033975;28;20213;-83
2022/02/14 00:09:30;;;;;;;6.57;2.10;;;;;;;;;;5022307;28;20209;-83
2022/02/14 00:11:56;;;;;;;3.95;2.03;;;;;;;;;;5022648;28;20186;-87
2022/02/14 00:14:22;;;;;;;8.30;3.60;;;;;;;;;;5029248;28;20181;-85
2022/02/14 00:16:48;;;;;;;4.37;2.50;;;;;;;;;;5022347;28;20182;-86
2022/02/14 00:19:14;;;;;;;6.15;2.15;;;;;;;;;;5022678;28;20529;-82
2022/02/14 00:21:40;;;;;;;3.13;2.20;;;;;;;;;;5012100;28;20194;-84
2022/02/14 00:24:06;;;;;;;5.37;2.33;;;;;;;;;;5033081;28;20666;-83
2022/02/14 00:26:33;;;;;;;3.75;2.30;;;;;;;;;;5022795;28;20497;-82
2022/02/14 00:29:01;;;;;;;2.42;1.92;;;;;;;;;;5055848;28;20179;-88
2022/02/14 00:31:27;;;;;;;6.85;2.53;;;;;;;;;;5021420;28;20417;-83
2022/02/14 00:33:53;;;;;;;4.27;2.10;;;;;;;;;;5015138;28;20196;-84
2022/02/14 00:36:19;;;;;;;2.67;2.33;;;;;;;;;;5023384;28;20430;-83
2022/02/14 00:38:45;;;;;;;2.80;2.53;;;;;;;;;;5049714;28;20234;-89
2022/02/14 00:41:11;;;;;;;5.07;3.67;;;;;;;;;;5024304;28;20182;-84
2022/02/14 00:43:37;;;;;;;4.55;2.72;;;;;;;;;;5038720;28;20258;-84
2022/02/14 00:46:03;;;;;;;3.55;2.17;;;;;;;;;;5015858;28;20679;-85
2022/02/14 00:48:29;;;;;;;2.83;2.50;;;;;;;;;;5031845;28;20193;-84
2022/02/14 00:50:55;;;;;;;4.18;2.35;;;;;;;;;;5038162;28;20508;-86
2022/02/14 00:53:21;;;;;;;3.40;2.33;;;;;;;;;;5007772;28;20616;-84
2022/02/14 00:55:48;;;;;;;4.28;2.65;;;;;;;;;;5043764;28;20259;-82
2022/02/14 00:58:14;;;;;;;3.22;2.22;;;;;;;;;;5026966;28;20186;-83
2022/02/14 01:00:41;;;;;;;3.28;2.50;;;;;;;;;;5036205;28;20195;-86
2022/02/14 01:03:07;;;;;;;5.70;2.33;;;;;;;;;;5024572;28;20289;-84
2022/02/14 01:05:33;;;;;;;2.60;2.40;;;;;;;;;;5050646;28;20220;-83
2022/02/14 01:07:59;;;;;;;4.07;2.20;;;;;;;;;;5011370;28;20171;-82
2022/02/14 01:10:25;;;;;;;5.00;3.00;;;;;;;;;;5026830;28;20287;-84
2022/02/14 01:12:51;;;;;;;5.15;2.83;;;;;;;;;;5023517;28;20501;-83
2022/02/14 01:15:17;;;;;;;5.07;2.17;;;;;;;;;;5022056;28;20187;-84
2022/02/14 01:17:43;;;;;;;4.53;2.30;;;;;;;;;;5051613;28;20202;-83
2022/02/14 01:20:11;;;;;;;5.00;2.53;;;;;;;;;;5024872;28;20186;-83
2022/02/14 01:22:38;;;;;;;3.00;2.70;;;;;;;;;;5026609;28;20183;-84
2022/02/14 01:25:04;;;;;;;6.35;2.72;;;;;;;;;;5026581;28;20191;-86
2022/02/14 01:27:30;;;;;;;3.85;2.22;;;;;;;;;;5029922;28;20589;-82
2022/02/14 01:29:56;;;;;;;4.00;2.55;;;;;;;;;;5022594;28;20182;-83
2022/02/14 01:32:23;;;;;;;6.07;2.97;;;;;;;;;;5007168;28;20198;-81
2022/02/14 01:34:53;;;;;;;2.90;2.53;;;;;;;;;;5026380;28;20175;-81
2022/02/14 01:37:19;;;;;;;3.80;2.65;;;;;;;;;;5011518;28;20186;-81
2022/02/14 01:39:45;;;;;;;3.00;2.67;;;;;;;;;;5029073;28;20622;-82
2022/02/14 01:42:12;;;;;;;5.60;2.95;;;;;;;;;;5019337;28;20250;-81
2022/02/14 01:44:40;;;;;;;5.78;3.03;;;;;;;;;;5039723;28;20716;-82
2022/02/14 01:47:10;;;;;;;4.05;2.50;;;;;;;;;;5024400;28;20209;-84
2022/02/14 01:49:36;;;;;;;6.90;2.92;;;;;;;;;;5026559;28;20201;-84
2022/02/14 01:52:02;;;;;;;3.83;2.97;;;;;;;;;;5016807;28;20199;-84
2022/02/14 01:54:28;;;;;;;4.25;3.10;;;;;;;;;;5022286;28;20434;-84
2022/02/14 01:56:54;;;;;;;5.20;2.95;;;;;;;;;;5022267;28;20229;-82
2022/02/14 01:59:20;;;;;;;2.70;2.50;;;;;;;;;;5029950;28;20519;-80
2022/02/14 02:01:46;;;;;;;2.92;2.47;;;;;;;;;;5014713;28;20201;-80
2022/02/14 02:04:13;;;;;;;6.60;2.80;;;;;;;;;;5025461;28;20274;-84
2022/02/14 02:06:41;;;;;;;2.80;2.45;;;;;;;;;;5030074;28;20460;-84
2022/02/14 02:09:07;;;;;;;4.70;2.30;;;;;;;;;;5048768;28;20186;-82
2022/02/14 02:14:21;;;;;;;7.22;2.90;;;;;;;;;;5028264;28;20188;-81
2022/02/14 02:16:47;;;;;;;6.10;2.42;;;;;;;;;;5010445;28;20198;-86
2022/02/14 02:19:13;;;;;;;4.70;3.15;;;;;;;;;;5029717;28;20282;-82
2022/02/14 02:21:39;;;;;;;4.10;2.47;;;;;;;;;;5029321;28;20194;-84
2022/02/14 02:24:09;;;;;;;3.80;2.55;;;;;;;;;;5025907;28;20516;-82
2022/02/14 02:26:35;;;;;;;4.20;2.95;;;;;;;;;;5008061;28;20199;-80
2022/02/14 02:29:01;;;;;;;5.00;2.93;;;;;;;;;;5055894;28;20628;-84
2022/02/14 02:31:27;;;;;;;3.90;2.83;;;;;;;;;;5016634;28;20457;-81
2022/02/14 02:33:53;;;;;;;5.00;2.33;;;;;;;;;;5015798;28;20214;-81
2022/02/14 02:36:19;;;;;;;4.77;2.97;;;;;;;;;;5029323;28;20202;-82
2022/02/14 02:38:45;;;;;;;4.40;3.00;;;;;;;;;;5030089;28;20469;-84
2022/02/14 02:41:11;;;;;;;6.60;3.13;;;;;;;;;;5011533;28;20262;-82
2022/02/14 02:43:37;;;;;;;3.60;2.80;;;;;;;;;;5021113;28;20441;-83
2022/02/14 02:46:04;;;;;;;5.20;2.70;;;;;;;;;;5022350;28;20469;-81
2022/02/14 02:48:30;;;;;;;5.53;3.15;;;;;;;;;;5039029;28;20441;-85
2022/02/14 02:51:02;;;;;;;7.40;2.63;;;;;;;;;;5025609;28;20245;-82
2022/02/14 02:53:32;;;;;;;5.45;2.85;;;;;;;;;;5026715;28;20170;-83
2022/02/14 02:55:58;;;;;;;4.45;3.20;;;;;;;;;;5048072;28;20300;-82
2022/02/14 02:58:25;;;;;;;3.80;3.15;;;;;;;;;;5035759;28;20193;-83
2022/02/14 03:00:51;;;;;;;6.97;3.00;;;;;;;;;;5028775;28;20263;-82
2022/02/14 03:03:17;;;;;;;4.65;3.40;;;;;;;;;;5027477;28;20189;-83
2022/02/14 03:05:43;;;;;;;4.23;2.90;;;;;;;;;;5023934;28;20203;-85
2022/02/14 03:08:09;;;;;;;3.50;3.10;;;;;;;;;;5016556;28;20422;-83
2022/02/14 03:10:35;;;;;;;5.50;3.40;;;;;;;;;;5014112;28;20509;-84
2022/02/14 03:13:01;;;;;;;6.73;3.80;;;;;;;;;;5031257;28;20209;-83
2022/02/14 03:15:27;;;;;;;5.45;4.05;;;;;;;;;;5020630;28;20497;-83
2022/02/14 03:17:53;;;;;;;5.57;2.80;;;;;;;;;;5024798;28;20193;-83
2022/02/14 03:20:19;;;;;;;4.22;2.22;;;;;;;;;;5010191;28;20426;-85
2022/02/14 03:22:45;;;;;;;10.33;2.40;;;;;;;;;;5012964;28;20187;-82
2022/02/14 03:25:14;;;;;;;3.88;2.55;;;;;;;;;;5020298;28;20453;-83
2022/02/14 03:27:40;;;;;;;3.65;2.42;;;;;;;;;;5028456;28;20202;-85
2022/02/14 03:30:07;;;;;;;2.35;2.00;;;;;;;;;;5042722;28;20190;-84
2022/02/14 03:32:33;;;;;;;5.22;2.38;;;;;;;;;;5022136;28;20705;-85
2022/02/14 03:34:59;;;;;;;3.58;2.03;;;;;;;;;;5028554;28;20187;-84
2022/02/14 03:37:25;;;;;;;2.30;1.75;;;;;;;;;;5024244;28;20229;-84
2022/02/14 03:39:51;;;;;;;4.73;1.93;;;;;;;;;;5023626;28;20222;-85
2022/02/14 03:42:17;;;;;;;2.45;2.00;;;;;;;;;;5023904;28;20431;-85
2022/02/14 03:44:43;;;;;;;3.67;1.60;;;;;;;;;;5007989;28;20563;-86
2022/02/14 03:47:10;;;;;;;1.48;0.90;;;;;;;;;;5025456;28;20553;-86
2022/02/14 03:49:36;;;;;;;0.95;0.70;;;;;;;;;;5027722;28;20274;-83
2022/02/14 03:52:02;;;;;;;0.63;0.60;;;;;;;;;;5024454;28;20190;-86
2022/02/14 03:54:28;;;;;;;2.38;0.77;;;;;;;;;;5027688;28;20183;-85
2022/02/14 03:56:54;;;;;;;2.20;0.60;;;;;;;;;;5024712;28;20190;-88
2022/02/14 03:59:20;;;;;;;1.10;0.70;;;;;;;;;;5037708;28;20523;-85
2022/02/14 04:01:46;;;;;;;0.88;0.60;;;;;;;;;;5010971;28;20202;-88
2022/02/14 04:04:12;;;;;;;0.80;0.60;;;;;;;;;;5009788;28;20195;-87
2022/02/14 04:06:39;;;;;;;1.02;0.55;;;;;;;;;;5013192;28;20989;-86
2022/02/14 04:09:05;;;;;;;1.40;0.50;;;;;;;;;;5023684;28;20178;-87
2022/02/14 04:11:31;;;;;;;0.82;0.60;;;;;;;;;;5037658;28;20175;-83
2022/02/14 04:13:57;;;;;;;1.00;0.63;;;;;;;;;;5011924;28;20174;-85
2022/02/14 04:16:23;;;;;;;0.60;0.60;;;;;;;;;;5022811;28;20197;-86
2022/02/14 04:18:49;;;;;;;0.60;0.60;;;;;;;;;;5027489;28;20999;-85
2022/02/14 04:21:15;;;;;;;2.63;0.70;;;;;;;;;;5010954;28;20186;-85
2022/02/14 04:23:41;;;;;;;0.80;0.52;;;;;;;;;;5033505;28;20513;-82
2022/02/14 04:26:07;;;;;;;1.13;0.80;;;;;;;;;;5039721;28;20206;-86
2022/02/14 04:28:33;;;;;;;1.17;0.90;;;;;;;;;;5026980;28;20182;-83
2022/02/14 04:30:59;;;;;;;1.43;0.50;;;;;;;;;;5020671;28;20183;-87
2022/02/14 04:33:25;;;;;;;1.30;0.60;;;;;;;;;;5011820;28;20428;-84
2022/02/14 04:35:51;;;;;;;1.27;0.70;;;;;;;;;;5008083;28;20194;-85
2022/02/14 04:38:17;;;;;;;1.33;0.50;;;;;;;;;;5035139;28;20544;-85
2022/02/14 04:40:43;;;;;;;1.13;0.57;;;;;;;;;;5007875;28;20183;-84
2022/02/14 04:43:09;;;;;;;3.33;0.57;;;;;;;;;;5032885;28;20186;-84
2022/02/14 04:45:36;;;;;;;1.90;0.50;;;;;;;;;;5020799;28;20289;-84
2022/02/14 04:48:02;;;;;;;0.70;0.52;;;;;;;;;;5024147;28;20207;-85
2022/02/14 04:50:28;;;;;;;2.42;0.70;;;;;;;;;;5007443;28;20167;-86
2022/02/14 04:52:54;;;;;;;0.70;0.60;;;;;;;;;;5042872;28;20189;-84
2022/02/14 04:55:20;;;;;;;0.60;0.57;;;;;;;;;;5011668;28;20446;-84
2022/02/14 04:57:46;;;;;;;0.80;0.60;;;;;;;;;;5027942;28;20318;-84
2022/02/14 05:00:13;;;;;;;1.00;0.70;;;;;;;;;;5010665;28;20599;-84
2022/02/14 05:02:39;;;;;;;0.98;0.50;;;;;;;;;;5007381;28;20189;-84
2022/02/14 05:05:06;;;;;;;1.10;0.70;;;;;;;;;;5009833;28;20258;-83
2022/02/14 05:07:32;;;;;;;3.28;0.70;;;;;;;;;;5011322;28;20433;-84
2022/02/14 05:09:58;;;;;;;0.70;0.50;;;;;;;;;;5012571;28;20183;-83
2022/02/14 05:12:24;;;;;;;1.00;0.68;;;;;;;;;;5026712;28;20187;-84
2022/02/14 05:14:50;;;;;;;0.70;0.50;;;;;;;;;;5036354;28;20209;-83
2022/02/14 05:17:16;;;;;;;0.60;0.50;;;;;;;;;;5019176;28;20178;-83
2022/02/14 05:19:42;;;;;;;0.88;0.60;;;;;;;;;;5026870;28;20195;-84
2022/02/14 05:22:10;;;;;;;1.58;0.60;;;;;;;;;;5011016;28;20685;-83
2022/02/14 05:24:36;;;;;;;1.50;0.65;;;;;;;;;;5033645;28;20193;-83
2022/02/14 05:27:02;;;;;;;1.70;0.70;;;;;;;;;;5007584;28;20202;-83
2022/02/14 05:29:28;;;;;;;1.27;0.50;;;;;;;;;;5036053;28;20189;-86
2022/02/14 05:31:56;;;;;;;2.20;0.80;;;;;;;;;;5036046;28;20194;-82
2022/02/14 05:34:22;;;;;;;1.00;0.70;;;;;;;;;;5017431;28;20954;-82
2022/02/14 05:36:48;;;;;;;1.77;0.60;;;;;;;;;;5011302;28;20183;-83
2022/02/14 05:39:14;;;;;;;0.82;0.70;;;;;;;;;;5026384;28;20276;-83
2022/02/14 05:41:40;;;;;;;0.60;0.50;;;;;;;;;;5041320;28;20270;-83
2022/02/14 05:44:06;;;;;;;0.95;0.60;;;;;;;;;;5008917;28;20242;-82
2022/02/14 05:46:32;;;;;;;1.35;0.60;;;;;;;;;;5029807;28;20219;-82
2022/02/14 05:48:58;;;;;;;0.73;0.70;;;;;;;;;;5030124;28;20179;-84
2022/02/14 05:51:24;;;;;;;1.20;0.80;;;;;;;;;;5030102;28;20205;-81
2022/02/14 05:53:50;;;;;;;2.60;0.63;;;;;;;;;;5010790;28;20242;-82
2022/02/14 05:56:16;;;;;;;1.35;0.70;;;;;;;;;;5038515;28;20201;-81
2022/02/14 05:58:43;;;;;;;3.13;0.77;;;;;;;;;;5030816;28;20195;-82
2022/02/14 06:01:09;;;;;;;0.77;0.65;;;;;;;;;;5025862;28;20195;-82
2022/02/14 06:03:35;;;;;;;0.63;0.55;;;;;;;;;;5010283;28;20241;-80
2022/02/14 06:06:01;;;;;;;1.50;0.82;;;;;;;;;;5025371;28;20300;-82
2022/02/14 06:08:27;;;;;;;1.88;0.90;;;;;;;;;;5025335;28;20230;-81
2022/02/14 06:10:53;;;;;;;2.63;0.98;;;;;;;;;;5046228;28;20178;-83
2022/02/14 06:13:19;;;;;;;2.92;0.93;;;;;;;;;;5019547;28;20182;-81
2022/02/14 06:15:45;;;;;;;1.37;0.60;;;;;;;;;;5033876;28;20193;-82
2022/02/14 06:18:12;;;;;;;1.80;1.05;;;;;;;;;;5044999;28;20464;-82
2022/02/14 06:20:38;;;;;;;3.10;0.95;;;;;;;;;;5044577;28;20192;-81
2022/02/14 06:23:04;;;;;;;2.38;0.73;;;;;;;;;;5013274;28;20255;-83
2022/02/14 06:25:30;;;;;;;3.80;0.93;;;;;;;;;;5029481;28;20237;-81
2022/02/14 06:27:56;;;;;;;1.80;0.90;;;;;;;;;;5029342;28;20187;-83
2022/02/14 06:30:22;;;;;;;2.30;1.00;;;;;;;;;;5014759;28;20246;-81
2022/02/14 06:32:49;;;;;;;6.20;1.10;;;;;;;;;;5052932;28;20425;-82
2022/02/14 06:35:15;;;;;;;6.05;1.60;;;;;;;;;;5035197;28;20231;-83
2022/02/14 06:37:46;;;;;;;3.75;1.00;;;;;;;;;;5024884;28;20435;-82
2022/02/14 06:40:12;;;;;;;1.15;0.80;;;;;;;;;;5037517;28;20214;-82
2022/02/14 06:42:39;;;;;;;3.53;0.80;;;;;;;;;;5031909;28;20183;-83
2022/02/14 06:45:05;;;;;;;5.68;1.20;;;;;;;;;;5040230;28;20182;-82
2022/02/14 06:47:31;;;;;;;2.85;1.15;;;;;;;;;;5040203;28;20170;-85
2022/02/14 06:49:57;;;;;;;7.25;1.10;;;;;;;;;;5013837;28;20186;-81
2022/02/14 06:52:23;;;;;;;1.70;0.80;;;;;;;;;;5014349;28;20199;-80
2022/02/14 06:54:49;;;;;;;7.60;1.10;;;;;;;;;;5035632;28;20183;-82
2022/02/14 06:57:15;;;;;;;2.03;0.80;;;;;;;;;;5029579;28;20210;-81
2022/02/14 06:59:41;;;;;;;3.35;1.50;;;;;;;;;;5024844;28;21204;-82
2022/02/14 07:02:07;;;;;;;2.40;0.98;;;;;;;;;;5036691;28;20178;-81
2022/02/14 07:04:34;;;;;;;6.65;1.30;;;;;;;;;;5023014;28;20290;-81
2022/02/14 07:06:59;;;;;;;5.63;1.52;;;;;;;;;;5023882;28;20236;-83
2022/02/14 07:09:25;;;;;;;3.70;1.57;;;;;;;;;;5020452;28;20187;-83
2022/02/14 07:11:51;;;;;;;4.05;1.02;;;;;;;;;;5024598;28;20437;-83
2022/02/14 07:14:17;;;;;;;3.63;1.10;;;;;;;;;;5025729;28;20182;-82
2022/02/14 07:16:44;;;;;;;2.00;0.95;;;;;;;;;;5028344;28;20190;-83
2022/02/14 07:19:10;;;;;;;1.90;1.08;;;;;;;;;;5028835;28;20197;-82
2022/02/14 07:21:36;;;;;;;3.72;1.45;;;;;;;;;;5013316;28;20221;-82
2022/02/14 07:24:02;;;;;;;3.38;1.45;;;;;;;;;;5029125;28;20491;-82
2022/02/14 07:26:29;;;;;;;2.95;1.10;;;;;;;;;;5041690;28;20209;-82
2022/02/14 07:28:56;;;;;;;3.80;1.20;;;;;;;;;;5045067;28;20183;-83
2022/02/14 07:31:22;;;;;;;7.90;1.38;;;;;;;;;;5028049;28;20263;-84
2022/02/14 07:33:48;;;;;;;8.73;1.27;;;;;;;;;;5028040;28;20183;-82
2022/02/14 07:36:14;;;;;;;6.97;1.63;;;;;;;;;;5055975;28;20196;-82
2022/02/14 07:38:40;;;;;;;1.45;1.20;;;;;;;;;;5024241;28;21009;-83
2022/02/14 07:41:06;;;;;;;4.82;1.02;;;;;;;;;;5013245;28;20392;-81
2022/02/14 07:43:32;;;;;;;5.60;1.10;;;;;;;;;;5028764;28;20420;-83
2022/02/14 07:45:59;;;;;;;7.05;2.05;;;;;;;;;;5025303;28;20230;-79
2022/02/14 07:48:25;;;;;;;4.00;1.40;;;;;;;;;;5028322;28;20675;-85
2022/02/14 07:50:51;;;;;;;3.63;1.40;;;;;;;;;;5021566;28;20186;-83
2022/02/14 07:53:18;;;;;;;4.40;1.30;;;;;;;;;;5020514;28;20202;-83
2022/02/14 07:55:44;;;;;;;3.15;1.00;;;;;;;;;;5032199;28;20196;-83
2022/02/14 07:58:10;;;;;;;4.75;1.20;;;;;;;;;;5017709;28;20187;-83
2022/02/14 08:00:36;;;;;;;4.00;1.65;;;;;;;;;;5012633;28;20559;-82
2022/02/14 08:03:02;;;;;;;2.90;1.60;;;;;;;;;;5033748;28;20190;-83
2022/02/14 08:05:28;;;;;;;6.40;1.77;;;;;;;;;;5036103;28;20196;-81
2022/02/14 08:07:54;;;;;;;5.53;1.70;;;;;;;;;;5050053;28;20179;-84
2022/02/14 08:10:20;;;;;;;2.10;1.35;;;;;;;;;;5033778;28;20186;-83
2022/02/14 08:12:46;;;;;;;5.47;1.90;;;;;;;;;;5019804;28;20224;-86
2022/02/14 08:15:12;;;;;;;5.40;2.00;;;;;;;;;;5035365;28;20193;-85
2022/02/14 08:17:38;;;;;;;4.15;1.10;;;;;;;;;;5033640;28;20185;-88
2022/02/14 08:20:05;;;;;;;12.82;1.88;;;;;;;;;;5023552;28;20545;-86
2022/02/14 08:22:31;;;;;;;6.00;2.08;;;;;;;;;;5038249;28;20246;-82
2022/02/14 08:24:57;;;;;;;4.40;1.42;;;;;;;;;;5042075;28;20204;-83
2022/02/14 08:27:24;;;;;;;4.77;1.37;;;;;;;;;;5020769;28;20217;-83
2022/02/14 08:29:50;;;;;;;6.07;1.33;;;;;;;;;;5020784;28;20440;-85
2022/02/14 08:32:16;;;;;;;4.40;1.60;;;;;;;;;;5022339;28;20276;-85
2022/02/14 08:34:43;;;;;;;5.75;1.50;;;;;;;;;;5011235;28;20229;-80
2022/02/14 08:37:09;;;;;;;6.00;1.92;;;;;;;;;;5017486;28;20183;-84
2022/02/14 08:39:36;;;;;;;3.60;1.48;;;;;;;;;;5015676;28;20300;-85
2022/02/14 08:42:02;;;;;;;2.53;1.20;;;;;;;;;;5019882;28;20210;-86
2022/02/14 08:44:28;;;;;;;14.27;1.52;;;;;;;;;;5022841;28;20182;-83
2022/02/14 08:46:54;;;;;;;6.37;1.40;;;;;;;;;;5018251;28;20209;-87
2022/02/14 08:49:24;;;;;;;3.72;1.45;;;;;;;;;;5016740;28;20441;-83
2022/02/14 08:51:50;;;;;;;7.70;1.90;;;;;;;;;;5031962;28;20206;-85
2022/02/14 08:54:16;;;;;;;3.38;1.27;;;;;;;;;;5026523;28;20209;-85
2022/02/14 08:56:42;;;;;;;4.38;1.73;;;;;;;;;;5035992;28;20195;-82
2022/02/14 08:59:08;;;;;;;4.78;1.58;;;;;;;;;;5024959;28;20197;-83
2022/02/14 09:01:35;;;;;;;7.97;2.05;;;;;;;;;;5011202;28;20194;-84
2022/02/14 09:04:01;;;;;;;6.68;2.45;;;;;;;;;;5027634;28;20576;-87
2022/02/14 09:06:27;;;;;;;3.72;1.60;;;;;;;;;;5014685;28;20285;-81
2022/02/14 09:08:53;;;;;;;3.42;1.77;;;;;;;;;;5048419;28;20181;-83
2022/02/14 09:11:19;;;;;;;4.57;1.98;;;;;;;;;;5039386;28;20170;-84
2022/02/14 09:13:45;;;;;;;2.50;1.38;;;;;;;;;;5031857;28;20216;-85
2022/02/14 09:16:11;;;;;;;3.30;1.40;;;;;;;;;;5020414;28;20210;-86
2022/02/14 09:18:38;;;;;;;7.22;1.70;;;;;;;;;;5035319;28;20224;-84
2022/02/14 09:21:04;;;;;;;5.05;1.60;;;;;;;;;;5021315;28;20194;-85
2022/02/14 09:23:31;;;;;;;5.50;1.88;;;;;;;;;;5036161;28;20214;-85
2022/02/14 09:25:58;;;;;;;9.23;2.00;;;;;;;;;;5065541;28;20216;-84
2022/02/14 09:28:24;;;;;;;5.95;1.75;;;;;;;;;;5026756;28;20201;-86
2022/02/14 09:30:51;;;;;;;3.10;1.75;;;;;;;;;;5029778;28;20178;-86
2022/02/14 09:33:17;;;;;;;5.35;1.60;;;;;;;;;;5037401;28;20182;-84
2022/02/14 09:35:43;;;;;;;3.67;1.45;;;;;;;;;;5026199;28;20198;-85
2022/02/14 09:38:10;;;;;;;3.75;1.73;;;;;;;;;;5030704;28;20222;-84
2022/02/14 09:40:36;;;;;;;5.38;1.85;;;;;;;;;;5023696;28;20217;-83
2022/02/14 09:43:03;;;;;;;4.28;1.70;;;;;;;;;;5023361;28;20190;-85
2022/02/14 09:45:30;;;;;;;8.35;1.50;;;;;;;;;;5032231;28;20211;-83
2022/02/14 09:47:56;;;;;;;4.95;1.40;;;;;;;;;;5026812;28;20186;-83
2022/02/14 09:50:22;;;;;;;8.47;2.10;;;;;;;;;;5022459;28;20218;-84
2022/02/14 09:52:49;;;;;;;7.93;1.75;;;;;;;;;;5012029;28;20442;-82
2022/02/14 09:55:15;;;;;;;11.60;2.10;;;;;;;;;;5019317;28;20182;-82
2022/02/14 09:57:41;;;;;;;2.90;1.67;;;;;;;;;;5028791;28;20184;-85
2022/02/14 10:00:08;;;;;;;3.50;1.35;;;;;;;;;;5038607;28;20274;-84
2022/02/14 10:02:35;;;;;;;10.90;2.08;;;;;;;;;;5024940;28;20181;-85
2022/02/14 10:05:05;;;;;;;5.57;1.60;;;;;;;;;;5026908;28;20171;-83
2022/02/14 10:07:40;;;;;;;3.45;1.50;;;;;;;;;;5022970;28;20671;-81
2022/02/14 10:10:10;;;;;;;4.00;2.17;;;;;;;;;;5025546;28;20193;-81
2022/02/14 10:12:41;;;;;;;5.93;1.85;;;;;;;;;;5040366;28;20210;-84
2022/02/14 10:15:07;;;;;;;6.20;1.70;;;;;;;;;;5011620;28;20242;-84
2022/02/14 10:17:47;;;;;;;5.65;1.60;;;;;;;;;;5018515;28;20305;-85
2022/02/14 10:20:18;;;;;;;5.53;1.58;;;;;;;;;;5056820;28;20241;-82
2022/02/14 10:22:53;;;;;;;9.25;1.85;;;;;;;;;;5027902;28;20250;-85
2022/02/14 10:25:25;;;;;;;7.18;1.85;;;;;;;;;;5058564;28;20308;-83
2022/02/14 10:27:52;;;;;;;5.85;1.75;;;;;;;;;;5026117;28;20288;-81
2022/02/14 10:30:18;;;;;;;8.82;1.95;;;;;;;;;;5031685;28;20183;-86
2022/02/14 10:32:51;;;;;;;6.32;1.63;;;;;;;;;;5041663;28;20590;-82
2022/02/14 10:35:17;;;;;;;6.93;1.52;;;;;;;;;;5068200;28;20249;-82
2022/02/14 10:37:44;;;;;;;6.82;1.52;;;;;;;;;;5015280;28;20194;-86
2022/02/14 10:40:11;;;;;;;4.85;1.73;;;;;;;;;;5016193;28;20919;-82
2022/02/14 10:42:38;;;;;;;7.45;2.00;;;;;;;;;;5046049;28;20197;-85
2022/02/14 10:45:09;;;;;;;3.25;1.75;;;;;;;;;;5025340;28;20208;-83
2022/02/14 10:47:35;;;;;;;5.85;1.38;;;;;;;;;;5024818;28;20179;-85
2022/02/14 10:50:04;;;;;;;6.37;1.30;;;;;;;;;;5056534;28;20189;-83
2022/02/14 10:52:43;;;;;;;7.05;1.98;;;;;;;;;;5031343;28;20460;-85
2022/02/14 10:55:28;;;;;;;5.25;1.10;;;;;;;;;;5054017;28;20332;-82
2022/02/14 10:58:10;;;;;;;6.57;1.48;;;;;;;;;;5037442;28;20190;-85
2022/02/14 11:00:38;;;;;;;5.47;1.60;;;;;;;;;;5036112;28;20687;-83
2022/02/14 11:03:09;;;;;;;8.07;1.80;;;;;;;;;;5024575;28;20204;-85
2022/02/14 11:05:35;;;;;;;6.93;1.95;;;;;;;;;;5038477;28;20203;-84
2022/02/14 11:08:02;;;;;;;4.70;1.58;;;;;;;;;;5052648;28;20169;-88
2022/02/14 11:10:28;;;;;;;4.10;1.23;;;;;;;;;;5025909;28;20179;-82
2022/02/14 11:12:56;;;;;;;3.38;1.55;;;;;;;;;;5036543;28;20247;-82
2022/02/14 11:15:25;;;;;;;4.80;1.65;;;;;;;;;;5022334;28;20660;-88
2022/02/14 11:18:01;;;;;;;4.55;2.05;;;;;;;;;;5051269;28;20198;-84
2022/02/14 11:20:28;;;;;;;10.60;1.75;;;;;;;;;;5020131;28;20188;-84
2022/02/14 11:22:55;;;;;;;7.07;2.25;;;;;;;;;;5023933;28;20186;-86
2022/02/14 11:25:28;;;;;;;6.47;1.58;;;;;;;;;;5048681;28;20179;-84
2022/02/14 11:28:01;;;;;;;3.35;1.50;;;;;;;;;;5012138;28;20210;-82
2022/02/14 11:30:28;;;;;;;5.63;1.30;;;;;;;;;;5023058;28;20205;-85
2022/02/14 11:33:13;;;;;;;8.95;1.50;;;;;;;;;;5028512;28;20240;-87
2022/02/14 11:35:39;;;;;;;7.43;1.50;;;;;;;;;;5024714;28;20174;-84
2022/02/14 11:38:06;;;;;;;5.43;1.92;;;;;;;;;;5038714;28;20632;-86
2022/02/14 11:40:34;;;;;;;3.85;1.60;;;;;;;;;;5024098;28;20377;-84
2022/02/14 11:43:05;;;;;;;3.65;1.33;;;;;;;;;;5030079;28;20609;-84
2022/02/14 11:45:31;;;;;;;3.55;1.35;;;;;;;;;;5041018;28;20222;-85
2022/02/14 11:47:57;;;;;;;5.20;1.92;;;;;;;;;;5032847;28;20218;-84
2022/02/14 11:50:39;;;;;;;4.28;1.40;;;;;;;;;;5048934;28;20203;-82
2022/02/14 11:53:26;;;;;;;2.65;1.15;;;;;;;;;;5024753;28;20230;-83
2022/02/14 11:55:52;;;;;;;10.65;2.67;;;;;;;;;;5009128;28;20206;-86
2022/02/14 11:58:37;;;;;;;3.88;1.50;;;;;;;;;;5014644;28;20190;-86
2022/02/14 12:01:09;;;;;;;6.25;1.40;;;;;;;;;;5048314;28;20297;-84
2022/02/14 12:03:35;;;;;;;8.45;1.50;;;;;;;;;;5025284;28;20282;-84
2022/02/14 12:06:02;;;;;;;5.30;1.40;;;;;;;;;;5015984;28;20229;-84
2022/02/14 12:08:48;;;;;;;3.10;1.30;;;;;;;;;;5022716;28;20438;-88
2022/02/14 12:11:14;;;;;;;3.90;1.77;;;;;;;;;;5025441;28;20179;-83
2022/02/14 12:13:54;;;;;;;4.90;2.13;;;;;;;;;;5016524;28;20197;-84
2022/02/14 12:22:04;;;;;;;4.05;1.60;;;;;;;;;;5015937;28;20196;-87
2022/02/14 12:24:30;;;;;;;4.13;1.45;;;;;;;;;;5051900;28;20191;-86
2022/02/14 12:27:01;;;;;;;3.55;2.08;;;;;;;;;;5028932;28;20706;-85
2022/02/14 12:29:39;;;;;;;4.13;1.88;;;;;;;;;;5032154;28;20175;-84
2022/02/14 12:32:10;;;;;;;4.43;1.40;;;;;;;;;;5036402;28;20162;-85
2022/02/14 12:34:37;;;;;;;7.45;2.08;;;;;;;;;;5022796;28;20217;-84
2022/02/14 12:37:05;;;;;;;6.03;1.92;;;;;;;;;;5032979;28;20171;-84
2022/02/14 12:39:32;;;;;;;4.53;1.60;;;;;;;;;;5012015;28;20286;-86
2022/02/14 12:41:58;;;;;;;4.47;1.60;;;;;;;;;;5022884;28;20233;-85
2022/02/14 12:44:29;;;;;;;4.50;1.73;;;;;;;;;;5036064;28;20191;-84
2022/02/14 12:46:56;;;;;;;1.98;1.10;;;;;;;;;;5010263;28;20205;-83
2022/02/14 12:49:22;;;;;;;7.18;1.85;;;;;;;;;;5022129;28;20214;-82
2022/02/14 12:51:48;;;;;;;5.13;1.83;;;;;;;;;;5014486;28;20179;-85
2022/02/14 12:54:14;;;;;;;8.10;1.43;;;;;;;;;;5037975;28;20817;-84
2022/02/14 12:56:42;;;;;;;5.00;1.80;;;;;;;;;;5006784;28;20434;-85
2022/02/14 12:59:09;;;;;;;6.28;1.90;;;;;;;;;;5012007;28;20423;-83
2022/02/14 13:01:39;;;;;;;10.00;1.95;;;;;;;;;;5017970;28;20187;-83
2022/02/14 13:04:09;;;;;;;8.05;1.90;;;;;;;;;;5015543;28;20540;-83
2022/02/14 13:06:36;;;;;;;3.47;1.65;;;;;;;;;;5032068;28;20213;-82
2022/02/14 13:09:03;;;;;;;3.65;2.03;;;;;;;;;;5049408;28;20197;-83
2022/02/14 13:11:29;;;;;;;3.80;1.70;;;;;;;;;;5032752;28;20178;-85
2022/02/14 13:13:55;;;;;;;4.38;1.60;;;;;;;;;;5018414;28;20186;-82
2022/02/14 13:16:28;;;;;;;4.82;1.42;;;;;;;;;;5032695;28;20183;-84
2022/02/14 13:18:54;;;;;;;4.88;1.60;;;;;;;;;;5033424;28;20198;-82
2022/02/14 13:21:20;;;;;;;4.43;1.88;;;;;;;;;;5018728;28;20195;-83
2022/02/14 13:23:47;;;;;;;8.07;1.80;;;;;;;;;;5023991;28;20390;-82
2022/02/14 13:26:22;;;;;;;2.55;1.60;;;;;;;;;;5038373;28;20289;-84
2022/02/14 13:28:49;;;;;;;5.65;1.67;;;;;;;;;;5022119;28;20182;-83
2022/02/14 13:31:22;;;;;;;2.53;1.17;;;;;;;;;;5029290;28;20205;-82
2022/02/14 13:33:50;;;;;;;3.75;1.58;;;;;;;;;;5036709;28;20187;-81
2022/02/14 13:36:16;;;;;;;7.45;1.70;;;;;;;;;;5040908;28;20190;-84
2022/02/14 13:38:42;;;;;;;7.35;2.25;;;;;;;;;;5019398;28;20239;-83
2022/02/14 13:41:09;;;;;;;7.85;2.75;;;;;;;;;;5039761;28;20171;-83
2022/02/14 13:43:44;;;;;;;2.75;1.60;;;;;;;;;;5040284;28;20197;-83
2022/02/14 13:46:12;;;;;;;2.65;1.00;;;;;;;;;;5018187;28;20217;-85
2022/02/14 13:48:46;;;;;;;7.13;1.60;;;;;;;;;;5011362;28;20183;-82
2022/02/14 13:51:26;;;;;;;4.70;1.58;;;;;;;;;;5032963;28;20178;-85
2022/02/14 13:53:54;;;;;;;5.28;1.52;;;;;;;;;;5038413;28;20196;-85
2022/02/14 13:56:20;;;;;;;3.83;1.60;;;;;;;;;;5039780;28;20213;-82
2022/02/14 13:58:50;;;;;;;5.20;1.40;;;;;;;;;;5025789;28;20237;-84
2022/02/14 14:01:34;;;;;;;5.25;1.52;;;;;;;;;;5030675;28;20215;-83
2022/02/14 14:04:28;;;;;;;6.70;2.22;;;;;;;;;;5014196;28;20275;-84
2022/02/14 14:07:04;;;;;;;3.72;1.60;;;;;;;;;;5030062;28;20553;-83
2022/02/14 14:09:38;;;;;;;4.45;1.48;;;;;;;;;;5014607;28;20179;-83
2022/02/14 14:12:09;;;;;;;2.72;1.42;;;;;;;;;;5031317;28;20183;-81
2022/02/14 14:14:36;;;;;;;3.42;1.40;;;;;;;;;;5016633;28;20604;-84
2022/02/14 14:17:07;;;;;;;2.20;1.05;;;;;;;;;;5042309;28;20194;-83
2022/02/14 14:19:42;;;;;;;7.40;1.40;;;;;;;;;;5013997;28;20182;-84
2022/02/14 14:22:08;;;;;;;1.80;1.27;;;;;;;;;;5014484;28;20207;-82
2022/02/14 14:24:34;;;;;;;5.80;1.33;;;;;;;;;;5029182;28;20230;-82
2022/02/14 14:27:00;;;;;;;10.37;1.70;;;;;;;;;;5026169;28;20211;-82
2022/02/14 14:29:26;;;;;;;4.47;1.77;;;;;;;;;;5024894;28;20445;-82
2022/02/14 14:31:52;;;;;;;4.20;1.67;;;;;;;;;;5032780;28;20174;-80
2022/02/14 14:34:18;;;;;;;10.23;2.00;;;;;;;;;;5021965;28;20189;-82
2022/02/14 14:36:45;;;;;;;2.47;1.00;;;;;;;;;;5019517;28;20818;-83
2022/02/14 14:39:10;;;;;;;2.20;1.20;;;;;;;;;;5030437;28;20464;-82
2022/02/14 14:41:39;;;;;;;1.77;1.20;;;;;;;;;;5024993;28;20247;-84
2022/02/14 14:44:05;;;;;;;3.28;1.20;;;;;;;;;;5039427;28;20533;-84
2022/02/14 14:46:31;;;;;;;3.05;1.30;;;;;;;;;;5014307;28;20211;-84
2022/02/14 14:49:01;;;;;;;4.90;1.30;;;;;;;;;;5013382;28;20187;-85
2022/02/14 14:51:27;;;;;;;2.92;1.05;;;;;;;;;;5047276;28;20195;-83
2022/02/14 14:53:53;;;;;;;2.28;1.20;;;;;;;;;;5024454;28;20183;-83